sensor_id;sensor_type;location;lat;lon;timestamp;temperature;humidity
20139;DHT22;10230;51.502;10.800;2022-12-29T00:02:22;9.70;99.90
20139;DHT22;10230;51.502;10.800;2022-12-29T00:04:49;9.60;99.90
20139;DHT22;10230;51.502;10.800;2022-12-29T00:07:16;9.60;99.90
20139;DHT22;10230;51.502;10.800;2022-12-29T00:09:42;9.60;99.90
20139;DHT22;10230;51.502;10.800;2022-12-29T00:12:07;9.60;99.90
20139;DHT22;10230;51.502;10.800;2022-12-29T00:14:33;9.60;99.90
20139;DHT22;10230;51.502;10.800;2022-12-29T00:17:17;9.60;99.90
20139;DHT22;10230;51.502;10.800;2022-12-29T00:19:42;9.60;99.90
20139;DHT22;10230;51.502;10.800;2022-12-29T00:22:26;9.70;99.90
20139;DHT22;10230;51.502;10.800;2022-12-29T00:25:12;9.70;99.90
20139;DHT22;10230;51.502;10.800;2022-12-29T00:27:56;9.70;99.90
20139;DHT22;10230;51.502;10.800;2022-12-29T00:30:41;9.70;99.90
20139;DHT22;10230;51.502;10.800;2022-12-29T00:33:29;9.70;99.90
20139;DHT22;10230;51.502;10.800;2022-12-29T00:36:27;9.70;99.90
20139;DHT22;10230;51.502;10.800;2022-12-29T00:39:03;9.70;99.90
20139;DHT22;10230;51.502;10.800;2022-12-29T00:41:48;9.70;99.90
20139;DHT22;10230;51.502;10.800;2022-12-29T00:44:33;9.80;99.90
20139;DHT22;10230;51.502;10.800;2022-12-29T00:46:59;9.80;99.90
20139;DHT22;10230;51.502;10.800;2022-12-29T00:49:28;9.80;99.90
20139;DHT22;10230;51.502;10.800;2022-12-29T00:52:09;9.80;99.90
20139;DHT22;10230;51.502;10.800;2022-12-29T00:54:36;9.70;99.90
20139;DHT22;10230;51.502;10.800;2022-12-29T00:57:04;9.80;99.90
20139;DHT22;10230;51.502;10.800;2022-12-29T00:59:30;9.80;99.90
20139;DHT22;10230;51.502;10.800;2022-12-29T01:01:56;9.80;99.90
20139;DHT22;10230;51.502;10.800;2022-12-29T01:04:24;9.80;99.90
20139;DHT22;10230;51.502;10.800;2022-12-29T01:09:17;9.70;99.90
20139;DHT22;10230;51.502;10.800;2022-12-29T01:12:02;9.90;99.90
20139;DHT22;10230;51.502;10.800;2022-12-29T01:14:28;9.90;99.90
20139;DHT22;10230;51.502;10.800;2022-12-29T01:16:55;9.90;99.90
20139;DHT22;10230;51.502;10.800;2022-12-29T01:19:21;9.90;99.90
20139;DHT22;10230;51.502;10.800;2022-12-29T01:21:47;9.90;99.90
20139;DHT22;10230;51.502;10.800;2022-12-29T01:24:17;10.00;99.90
20139;DHT22;10230;51.502;10.800;2022-12-29T01:26:43;10.00;99.90
20139;DHT22;10230;51.502;10.800;2022-12-29T01:29:09;10.00;99.90
20139;DHT22;10230;51.502;10.800;2022-12-29T01:31:35;10.00;99.90
20139;DHT22;10230;51.502;10.800;2022-12-29T01:34:01;10.00;99.90
20139;DHT22;10230;51.502;10.800;2022-12-29T01:36:26;10.00;99.90
20139;DHT22;10230;51.502;10.800;2022-12-29T01:38:52;10.00;99.90
20139;DHT22;10230;51.502;10.800;2022-12-29T01:41:18;10.00;99.90
20139;DHT22;10230;51.502;10.800;2022-12-29T01:43:55;10.00;99.90
20139;DHT22;10230;51.502;10.800;2022-12-29T01:46:51;10.00;99.90
20139;DHT22;10230;51.502;10.800;2022-12-29T01:49:19;10.00;99.90
20139;DHT22;10230;51.502;10.800;2022-12-29T01:51:55;10.00;99.90
20139;DHT22;10230;51.502;10.800;2022-12-29T01:54:25;10.00;99.90
20139;DHT22;10230;51.502;10.800;2022-12-29T08:10:29;11.40;99.90
20139;DHT22;10230;51.502;10.800;2022-12-29T08:12:55;11.40;99.90
20139;DHT22;10230;51.502;10.800;2022-12-29T08:15:20;11.40;99.90
20139;DHT22;10230;51.502;10.800;2022-12-29T08:17:46;11.40;99.90
20139;DHT22;10230;51.502;10.800;2022-12-29T08:20:12;11.40;99.90
20139;DHT22;10230;51.502;10.800;2022-12-29T08:22:37;11.50;99.90
20139;DHT22;10230;51.502;10.800;2022-12-29T08:39:39;11.80;99.90
20139;DHT22;10230;51.502;10.800;2022-12-29T08:42:05;11.80;99.90
20139;DHT22;10230;51.502;10.800;2022-12-29T08:44:31;11.80;99.90
20139;DHT22;10230;51.502;10.800;2022-12-29T08:46:57;11.80;99.90
20139;DHT22;10230;51.502;10.800;2022-12-29T08:51:48;11.90;99.90
20139;DHT22;10230;51.502;10.800;2022-12-29T08:54:14;11.90;99.90
20139;DHT22;10230;51.502;10.800;2022-12-29T08:56:40;11.90;99.90
20139;DHT22;10230;51.502;10.800;2022-12-29T08:59:05;12.00;99.90
20139;DHT22;10230;51.502;10.800;2022-12-29T09:01:31;12.00;99.90
20139;DHT22;10230;51.502;10.800;2022-12-29T09:03:58;12.00;99.90
20139;DHT22;10230;51.502;10.800;2022-12-29T09:06:24;12.00;99.90
20139;DHT22;10230;51.502;10.800;2022-12-29T09:08:50;11.90;99.90
20139;DHT22;10230;51.502;10.800;2022-12-29T09:11:20;11.80;99.90
20139;DHT22;10230;51.502;10.800;2022-12-29T09:13:47;11.80;99.90
20139;DHT22;10230;51.502;10.800;2022-12-29T09:18:39;11.90;99.90
20139;DHT22;10230;51.502;10.800;2022-12-29T09:21:06;11.80;99.90
20139;DHT22;10230;51.502;10.800;2022-12-29T09:23:33;11.70;99.90
20139;DHT22;10230;51.502;10.800;2022-12-29T09:25:59;11.60;99.90
20139;DHT22;10230;51.502;10.800;2022-12-29T09:28:25;11.40;99.90
20139;DHT22;10230;51.502;10.800;2022-12-29T09:30:51;11.30;99.90
20139;DHT22;10230;51.502;10.800;2022-12-29T09:33:17;11.30;99.90
20139;DHT22;10230;51.502;10.800;2022-12-29T09:35:44;11.40;99.90
20139;DHT22;10230;51.502;10.800;2022-12-29T09:38:11;11.40;99.90
20139;DHT22;10230;51.502;10.800;2022-12-29T09:40:38;11.40;99.90
20139;DHT22;10230;51.502;10.800;2022-12-29T09:45:44;11.40;99.90
20139;DHT22;10230;51.502;10.800;2022-12-29T09:48:21;11.50;99.90
20139;DHT22;10230;51.502;10.800;2022-12-29T09:50:53;11.40;99.90
20139;DHT22;10230;51.502;10.800;2022-12-29T09:53:38;11.50;99.90
20139;DHT22;10230;51.502;10.800;2022-12-29T09:56:05;11.60;99.90
20139;DHT22;10230;51.502;10.800;2022-12-29T09:58:40;11.60;99.90
20139;DHT22;10230;51.502;10.800;2022-12-29T10:03:56;11.50;99.90
20139;DHT22;10230;51.502;10.800;2022-12-29T10:17:04;13.40;99.90
20139;DHT22;10230;51.502;10.800;2022-12-29T10:19:40;13.20;99.90
20139;DHT22;10230;51.502;10.800;2022-12-29T10:24:48;12.90;99.90
20139;DHT22;10230;51.502;10.800;2022-12-29T10:27:17;12.90;99.90
20139;DHT22;10230;51.502;10.800;2022-12-29T10:29:48;12.70;99.90
20139;DHT22;10230;51.502;10.800;2022-12-29T10:32:36;12.50;99.90
20139;DHT22;10230;51.502;10.800;2022-12-29T10:38:01;12.20;99.90
20139;DHT22;10230;51.502;10.800;2022-12-29T10:43:28;12.10;99.90
20139;DHT22;10230;51.502;10.800;2022-12-29T10:46:00;12.10;99.90
20139;DHT22;10230;51.502;10.800;2022-12-29T10:48:32;12.20;99.90
20139;DHT22;10230;51.502;10.800;2022-12-29T10:51:00;12.20;99.90
20139;DHT22;10230;51.502;10.800;2022-12-29T10:53:42;12.20;99.90
20139;DHT22;10230;51.502;10.800;2022-12-29T10:56:40;12.30;99.90
20139;DHT22;10230;51.502;10.800;2022-12-29T10:59:25;12.40;99.90
20139;DHT22;10230;51.502;10.800;2022-12-29T11:25:25;16.10;99.90
20139;DHT22;10230;51.502;10.800;2022-12-29T11:28:15;15.80;99.90
20139;DHT22;10230;51.502;10.800;2022-12-29T11:30:41;16.10;99.90
20139;DHT22;10230;51.502;10.800;2022-12-29T11:33:08;16.50;99.90
20139;DHT22;10230;51.502;10.800;2022-12-29T11:35:42;16.90;99.90
20139;DHT22;10230;51.502;10.800;2022-12-29T11:38:24;17.10;99.90
20139;DHT22;10230;51.502;10.800;2022-12-29T11:40:51;17.30;99.90
20139;DHT22;10230;51.502;10.800;2022-12-29T11:43:26;16.90;99.90
20139;DHT22;10230;51.502;10.800;2022-12-29T11:45:55;16.70;99.90
20139;DHT22;10230;51.502;10.800;2022-12-29T11:48:22;16.80;99.90
20139;DHT22;10230;51.502;10.800;2022-12-29T11:50:56;16.80;99.90
20139;DHT22;10230;51.502;10.800;2022-12-29T11:53:27;16.80;99.90
20139;DHT22;10230;51.502;10.800;2022-12-29T11:55:56;16.60;99.90
20139;DHT22;10230;51.502;10.800;2022-12-29T11:58:30;16.60;99.90
20139;DHT22;10230;51.502;10.800;2022-12-29T12:01:04;16.50;99.90
20139;DHT22;10230;51.502;10.800;2022-12-29T12:03:32;16.40;99.90
20139;DHT22;10230;51.502;10.800;2022-12-29T12:08:48;15.40;99.90
20139;DHT22;10230;51.502;10.800;2022-12-29T12:19:13;13.50;99.90
20139;DHT22;10230;51.502;10.800;2022-12-29T12:34:44;12.70;99.90
20139;DHT22;10230;51.502;10.800;2022-12-29T12:56:47;13.30;99.90
20139;DHT22;10230;51.502;10.800;2022-12-29T13:00:08;13.30;99.90
20139;DHT22;10230;51.502;10.800;2022-12-29T13:07:57;12.80;99.90
20139;DHT22;10230;51.502;10.800;2022-12-29T13:10:45;12.70;99.90
20139;DHT22;10230;51.502;10.800;2022-12-29T13:19:08;12.50;99.90
20139;DHT22;10230;51.502;10.800;2022-12-29T13:35:15;12.40;99.90
20139;DHT22;10230;51.502;10.800;2022-12-29T13:37:53;12.30;99.90
20139;DHT22;10230;51.502;10.800;2022-12-29T13:40:24;12.30;99.90
20139;DHT22;10230;51.502;10.800;2022-12-29T13:42:54;12.30;99.90
20139;DHT22;10230;51.502;10.800;2022-12-29T13:45:25;12.30;99.90
20139;DHT22;10230;51.502;10.800;2022-12-29T13:50:23;12.40;99.90
20139;DHT22;10230;51.502;10.800;2022-12-29T13:58:20;12.30;99.90
20139;DHT22;10230;51.502;10.800;2022-12-29T14:33:32;11.70;99.90
20139;DHT22;10230;51.502;10.800;2022-12-29T14:36:19;11.70;99.90
20139;DHT22;10230;51.502;10.800;2022-12-29T14:38:46;11.60;99.90
20139;DHT22;10230;51.502;10.800;2022-12-29T14:41:27;11.60;99.90
20139;DHT22;10230;51.502;10.800;2022-12-29T14:44:01;11.60;99.90
20139;DHT22;10230;51.502;10.800;2022-12-29T14:47:00;11.50;99.90
20139;DHT22;10230;51.502;10.800;2022-12-29T14:49:30;11.50;99.90
20139;DHT22;10230;51.502;10.800;2022-12-29T14:52:19;11.50;99.90
20139;DHT22;10230;51.502;10.800;2022-12-29T14:54:49;11.40;99.90
20139;DHT22;10230;51.502;10.800;2022-12-29T15:00:12;11.30;99.90
20139;DHT22;10230;51.502;10.800;2022-12-29T15:02:45;11.30;99.90
20139;DHT22;10230;51.502;10.800;2022-12-29T15:05:29;11.30;99.90
20139;DHT22;10230;51.502;10.800;2022-12-29T15:07:56;11.30;99.90
20139;DHT22;10230;51.502;10.800;2022-12-29T15:10:24;11.20;99.90
20139;DHT22;10230;51.502;10.800;2022-12-29T15:12:54;11.20;99.90
20139;DHT22;10230;51.502;10.800;2022-12-29T15:35:33;10.80;99.90
20139;DHT22;10230;51.502;10.800;2022-12-29T15:38:00;10.80;99.90
20139;DHT22;10230;51.502;10.800;2022-12-29T15:40:37;10.80;99.90
20139;DHT22;10230;51.502;10.800;2022-12-29T15:45:34;10.70;99.90
20139;DHT22;10230;51.502;10.800;2022-12-29T15:48:01;10.70;99.90
20139;DHT22;10230;51.502;10.800;2022-12-29T15:50:29;10.80;99.90
20139;DHT22;10230;51.502;10.800;2022-12-29T15:52:56;10.80;99.90
20139;DHT22;10230;51.502;10.800;2022-12-29T15:55:37;10.80;99.90
20139;DHT22;10230;51.502;10.800;2022-12-29T15:58:05;10.80;99.90
20139;DHT22;10230;51.502;10.800;2022-12-29T16:00:35;10.80;99.90
20139;DHT22;10230;51.502;10.800;2022-12-29T16:03:04;10.80;99.90
20139;DHT22;10230;51.502;10.800;2022-12-29T16:05:35;10.80;99.90
20139;DHT22;10230;51.502;10.800;2022-12-29T16:08:01;10.80;99.90
20139;DHT22;10230;51.502;10.800;2022-12-29T16:10:37;10.70;99.90
20139;DHT22;10230;51.502;10.800;2022-12-29T16:15:50;10.70;99.90
20139;DHT22;10230;51.502;10.800;2022-12-29T16:18:24;10.70;99.90
20139;DHT22;10230;51.502;10.800;2022-12-29T16:20:53;10.70;99.90
20139;DHT22;10230;51.502;10.800;2022-12-29T16:23:25;10.70;99.90
20139;DHT22;10230;51.502;10.800;2022-12-29T16:25:53;10.60;99.90
20139;DHT22;10230;51.502;10.800;2022-12-29T16:28:43;10.60;99.90
20139;DHT22;10230;51.502;10.800;2022-12-29T16:31:22;10.50;99.90
20139;DHT22;10230;51.502;10.800;2022-12-29T16:33:55;10.50;99.90
20139;DHT22;10230;51.502;10.800;2022-12-29T16:36:27;10.40;99.90
20139;DHT22;10230;51.502;10.800;2022-12-29T16:39:19;10.30;99.90
20139;DHT22;10230;51.502;10.800;2022-12-29T16:41:54;10.20;99.90
20139;DHT22;10230;51.502;10.800;2022-12-29T16:49:39;10.10;99.90
20139;DHT22;10230;51.502;10.800;2022-12-29T16:52:23;10.10;99.90
20139;DHT22;10230;51.502;10.800;2022-12-29T16:54:59;10.10;99.90
20139;DHT22;10230;51.502;10.800;2022-12-29T16:57:43;10.10;99.90
20139;DHT22;10230;51.502;10.800;2022-12-29T17:00:22;10.10;99.90
20139;DHT22;10230;51.502;10.800;2022-12-29T17:03:14;10.10;99.90
20139;DHT22;10230;51.502;10.800;2022-12-29T17:05:47;10.10;99.90
20139;DHT22;10230;51.502;10.800;2022-12-29T17:08:28;10.00;99.90
20139;DHT22;10230;51.502;10.800;2022-12-29T17:11:01;10.00;99.90
20139;DHT22;10230;51.502;10.800;2022-12-29T19:29:13;9.00;99.90
20139;DHT22;10230;51.502;10.800;2022-12-29T19:31:40;9.00;99.90
